createdAt,value
2019-03-26T00:00:08.636Z,1.80
2019-03-26T00:02:37.199Z,1.76
2019-03-26T00:05:06.589Z,1.73
2019-03-26T00:07:35.219Z,1.75
2019-03-26T00:10:04.429Z,1.75
2019-03-26T00:12:33.024Z,1.75
2019-03-26T00:15:01.586Z,1.70
2019-03-26T00:17:30.142Z,1.69
2019-03-26T00:19:58.683Z,1.64
2019-03-26T00:22:27.236Z,1.63
2019-03-26T00:24:55.935Z,1.61
2019-03-26T00:27:24.890Z,1.59
2019-03-26T00:29:53.595Z,1.59
2019-03-26T00:32:23.615Z,1.60
2019-03-26T00:34:52.338Z,1.61
2019-03-26T00:37:20.811Z,1.64
2019-03-26T00:39:49.358Z,1.65
2019-03-26T00:42:18.346Z,1.60
2019-03-26T00:44:46.946Z,1.60
2019-03-26T00:47:15.467Z,1.62
2019-03-26T00:49:44.009Z,1.61
2019-03-26T00:52:12.598Z,1.60
2019-03-26T00:54:41.134Z,1.63
2019-03-26T00:57:09.758Z,1.63
2019-03-26T00:59:38.391Z,1.65
2019-03-26T01:02:07.069Z,1.66
2019-03-26T01:04:35.722Z,1.64
2019-03-26T01:07:04.413Z,1.64
2019-03-26T01:09:33.048Z,1.64
2019-03-26T01:12:01.773Z,1.66
2019-03-26T01:14:31.577Z,1.68
2019-03-26T01:17:03.220Z,1.71
2019-03-26T01:19:31.867Z,1.75
2019-03-26T01:22:00.481Z,1.78
2019-03-26T01:24:29.123Z,1.79
2019-03-26T01:26:57.826Z,1.79
2019-03-26T01:29:26.428Z,1.77
2019-03-26T01:31:55.140Z,1.75
2019-03-26T01:34:23.711Z,1.74
2019-03-26T01:36:52.381Z,1.71
2019-03-26T01:39:20.852Z,1.69
2019-03-26T01:41:49.396Z,1.64
2019-03-26T01:44:18.063Z,1.59
2019-03-26T01:46:46.699Z,1.58
2019-03-26T01:49:15.435Z,1.59
2019-03-26T01:51:44.071Z,1.60
2019-03-26T01:54:12.599Z,1.56
2019-03-26T01:56:41.085Z,1.54
2019-03-26T01:59:09.627Z,1.52
2019-03-26T02:01:38.325Z,1.49
2019-03-26T02:04:06.834Z,1.48
2019-03-26T02:06:36.493Z,1.46
2019-03-26T02:09:06.189Z,1.46
2019-03-26T02:11:34.884Z,1.43
2019-03-26T02:14:03.569Z,1.43
2019-03-26T02:16:32.236Z,1.45
2019-03-26T02:19:00.790Z,1.44
2019-03-26T02:21:29.374Z,1.43
2019-03-26T02:23:58.067Z,1.42
2019-03-26T02:26:26.669Z,1.44
2019-03-26T02:28:55.318Z,1.45
2019-03-26T02:31:23.887Z,1.43
2019-03-26T02:33:52.538Z,1.44
2019-03-26T02:36:21.126Z,1.48
2019-03-26T02:38:49.766Z,1.48
2019-03-26T02:41:18.302Z,1.51
2019-03-26T02:43:46.772Z,1.52
2019-03-26T02:46:15.321Z,1.54
2019-03-26T02:48:43.924Z,1.58
2019-03-26T02:51:12.777Z,1.56
2019-03-26T02:53:41.414Z,1.58
2019-03-26T02:56:10.265Z,1.59
2019-03-26T02:58:38.868Z,1.57
2019-03-26T03:01:07.635Z,1.55
2019-03-26T03:03:36.195Z,1.53
2019-03-26T03:06:04.731Z,1.51
2019-03-26T03:08:33.271Z,1.50
2019-03-26T03:11:01.885Z,1.50
2019-03-26T03:13:30.483Z,1.47
2019-03-26T03:15:59.110Z,1.48
2019-03-26T03:18:27.783Z,1.46
2019-03-26T03:21:03.690Z,1.47
2019-03-26T03:23:32.411Z,1.48
2019-03-26T03:26:01.203Z,1.46
2019-03-26T03:28:29.715Z,1.45
2019-03-26T03:30:58.255Z,1.46
2019-03-26T03:33:26.944Z,1.48
2019-03-26T03:35:55.651Z,1.46
2019-03-26T03:38:24.301Z,1.46
2019-03-26T03:40:52.887Z,1.43
2019-03-26T03:43:21.439Z,1.42
2019-03-26T03:45:50.348Z,1.39
2019-03-26T03:48:19.367Z,1.36
2019-03-26T03:50:48.076Z,1.35
2019-03-26T03:53:19.258Z,1.33
2019-03-26T03:55:50.870Z,1.32
2019-03-26T03:58:22.045Z,1.28
2019-03-26T04:00:50.773Z,1.27
2019-03-26T04:03:19.342Z,1.25
2019-03-26T04:05:47.942Z,1.24
2019-03-26T04:08:16.630Z,1.21
2019-03-26T04:10:45.290Z,1.23
2019-03-26T04:13:16.132Z,1.21
2019-03-26T04:15:44.462Z,1.16
2019-03-26T04:18:13.233Z,1.16
2019-03-26T04:20:41.821Z,1.12
2019-03-26T04:23:10.490Z,1.13
2019-03-26T04:25:39.153Z,1.15
2019-03-26T04:28:07.897Z,1.15
2019-03-26T04:30:38.832Z,1.11
2019-03-26T04:33:07.157Z,1.09
2019-03-26T04:35:35.823Z,1.06
2019-03-26T04:38:04.928Z,1.04
2019-03-26T04:40:33.617Z,1.00
2019-03-26T04:43:06.171Z,1.00
2019-03-26T04:45:34.801Z,1.01
2019-03-26T04:48:03.518Z,0.96
2019-03-26T04:50:32.123Z,0.94
2019-03-26T04:53:00.782Z,0.93
2019-03-26T04:55:29.319Z,0.94
2019-03-26T04:57:57.924Z,0.97
2019-03-26T05:00:26.550Z,1.00
2019-03-26T05:02:55.156Z,1.04
2019-03-26T05:05:23.835Z,1.04
2019-03-26T05:07:52.309Z,1.08
2019-03-26T05:10:20.974Z,1.10
2019-03-26T05:12:49.513Z,1.10
2019-03-26T05:15:18.057Z,1.11
2019-03-26T05:17:46.684Z,1.16
2019-03-26T05:20:15.344Z,1.20
2019-03-26T05:22:44.065Z,1.21
2019-03-26T05:25:13.378Z,1.21
2019-03-26T05:27:45.670Z,1.21
2019-03-26T05:30:12.453Z,1.17
2019-03-26T05:32:40.993Z,1.18
2019-03-26T05:35:11.214Z,1.21
2019-03-26T05:37:39.822Z,1.23
2019-03-26T05:40:09.849Z,1.19
2019-03-26T05:42:38.752Z,1.16
2019-03-26T05:45:09.315Z,1.17
2019-03-26T05:47:37.897Z,1.16
2019-03-26T05:50:07.943Z,1.14
2019-03-26T05:52:37.293Z,1.15
2019-03-26T05:55:07.215Z,1.16
2019-03-26T05:57:37.006Z,1.12
2019-03-26T06:00:14.996Z,1.12
2019-03-26T06:02:43.647Z,1.08
2019-03-26T06:05:15.320Z,1.10
2019-03-26T06:07:43.931Z,1.11
2019-03-26T06:10:13.035Z,1.14
2019-03-26T06:12:41.685Z,1.16
2019-03-26T06:15:11.001Z,1.16
2019-03-26T06:17:39.648Z,1.17
2019-03-26T06:20:10.825Z,1.16
2019-03-26T06:22:39.759Z,1.16
2019-03-26T06:25:08.714Z,1.17
2019-03-26T06:27:37.756Z,1.20
2019-03-26T06:30:09.561Z,1.17
2019-03-26T06:32:38.238Z,1.18
2019-03-26T06:35:09.122Z,1.21
2019-03-26T06:37:38.030Z,1.29
2019-03-26T06:40:11.415Z,1.39
2019-03-26T06:42:39.968Z,1.44
2019-03-26T06:45:12.486Z,1.41
2019-03-26T06:47:41.125Z,1.42
2019-03-26T06:50:11.437Z,1.44
2019-03-26T06:52:40.058Z,1.48
2019-03-26T06:55:08.864Z,1.45
2019-03-26T06:57:37.996Z,1.40
2019-03-26T07:00:11.640Z,1.30
2019-03-26T07:02:40.465Z,1.31
2019-03-26T07:05:09.459Z,1.33
2019-03-26T07:07:38.095Z,1.41
2019-03-26T07:10:08.530Z,1.55
2019-03-26T07:12:37.070Z,1.57
2019-03-26T07:15:08.579Z,1.63
2019-03-26T07:17:37.777Z,1.65
2019-03-26T07:20:09.693Z,1.65
2019-03-26T07:22:38.766Z,1.74
2019-03-26T07:25:09.467Z,1.84
2019-03-26T07:27:38.416Z,1.95
2019-03-26T07:30:09.684Z,2.03
2019-03-26T07:32:38.292Z,2.08
2019-03-26T07:35:08.277Z,2.19
2019-03-26T07:37:45.302Z,2.30
2019-03-26T07:40:08.297Z,2.34
2019-03-26T07:42:36.834Z,2.33
2019-03-26T07:45:09.440Z,2.30
2019-03-26T07:47:38.065Z,2.22
2019-03-26T07:50:08.018Z,2.24
2019-03-26T07:52:36.576Z,2.25
2019-03-26T07:55:07.379Z,2.32
2019-03-26T07:57:36.179Z,2.31
2019-03-26T08:00:11.090Z,2.24
2019-03-26T08:02:39.774Z,2.19
2019-03-26T08:05:09.763Z,2.15
2019-03-26T08:07:38.369Z,2.14
2019-03-26T08:10:10.698Z,2.11
2019-03-26T08:12:39.335Z,2.05
2019-03-26T08:15:08.968Z,2.14
2019-03-26T08:17:37.504Z,2.18
2019-03-26T08:20:07.995Z,2.26
2019-03-26T08:22:36.548Z,2.31
2019-03-26T08:25:07.459Z,2.34
2019-03-26T08:27:36.069Z,2.32
2019-03-26T08:30:08.779Z,2.25
2019-03-26T08:32:37.462Z,2.20
2019-03-26T08:35:07.108Z,2.24
2019-03-26T08:37:35.715Z,2.17
2019-03-26T08:40:07.461Z,2.23
2019-03-26T08:42:35.997Z,2.42
2019-03-26T08:45:07.347Z,2.61
2019-03-26T08:47:36.552Z,2.71
2019-03-26T08:50:07.162Z,2.86
2019-03-26T08:52:35.761Z,2.96
2019-03-26T08:55:06.159Z,2.97
2019-03-26T08:57:34.768Z,2.97
2019-03-26T09:00:03.732Z,2.99
2019-03-26T09:02:32.197Z,3.04
2019-03-26T09:05:00.676Z,3.02
2019-03-26T09:07:29.292Z,3.09
2019-03-26T09:09:57.840Z,3.16
2019-03-26T09:12:26.445Z,3.30
2019-03-26T09:14:54.986Z,3.31
2019-03-26T09:17:23.598Z,3.24
2019-03-26T09:19:52.215Z,3.25
2019-03-26T09:22:20.745Z,3.26
2019-03-26T09:24:51.533Z,3.18
2019-03-26T09:27:20.061Z,3.25
2019-03-26T09:29:48.700Z,3.32
2019-03-26T09:32:17.228Z,3.33
2019-03-26T09:34:45.815Z,3.32
2019-03-26T09:37:16.074Z,3.32
2019-03-26T09:39:44.545Z,3.37
2019-03-26T09:42:13.080Z,3.50
2019-03-26T09:44:41.547Z,3.55
2019-03-26T09:47:16.098Z,3.57
2019-03-26T09:49:40.347Z,3.53
2019-03-26T09:52:08.813Z,3.59
2019-03-26T09:54:37.413Z,3.71
2019-03-26T09:57:06.019Z,3.86
2019-03-26T09:59:34.553Z,4.01
2019-03-26T10:02:03.099Z,4.11
2019-03-26T10:04:31.759Z,4.08
2019-03-26T10:07:00.365Z,3.98
2019-03-26T10:09:28.979Z,3.82
2019-03-26T10:11:59.455Z,3.71
2019-03-26T10:14:28.006Z,3.65
2019-03-26T10:16:56.627Z,3.52
2019-03-26T10:19:25.167Z,3.35
2019-03-26T10:21:54.630Z,3.21
2019-03-26T10:24:23.167Z,3.20
2019-03-26T10:26:51.984Z,3.19
2019-03-26T10:29:30.213Z,3.24
2019-03-26T10:31:50.875Z,3.32
2019-03-26T10:34:19.680Z,3.51
2019-03-26T10:36:48.786Z,3.64
2019-03-26T10:39:17.394Z,3.74
2019-03-26T10:41:46.021Z,3.94
2019-03-26T10:44:14.996Z,4.21
2019-03-26T10:46:44.643Z,4.50
2019-03-26T10:49:13.391Z,4.79
2019-03-26T10:51:42.032Z,5.00
2019-03-26T10:54:10.654Z,5.07
2019-03-26T10:56:39.261Z,5.07
2019-03-26T10:59:07.889Z,4.98
2019-03-26T11:01:36.500Z,4.59
2019-03-26T11:04:07.748Z,4.55
2019-03-26T11:06:35.495Z,4.62
2019-03-26T11:09:18.797Z,4.71
2019-03-26T11:11:35.388Z,4.81
2019-03-26T11:14:04.291Z,4.87
2019-03-26T11:16:32.923Z,4.86
2019-03-26T11:19:01.462Z,5.07
2019-03-26T11:21:30.044Z,5.20
2019-03-26T11:23:58.583Z,5.23
2019-03-26T11:26:27.193Z,5.36
2019-03-26T11:28:55.796Z,5.41
2019-03-26T11:31:24.398Z,5.46
2019-03-26T11:33:52.947Z,5.53
2019-03-26T11:36:21.476Z,5.48
2019-03-26T11:38:50.126Z,5.51
2019-03-26T11:41:18.721Z,5.68
2019-03-26T11:43:47.365Z,5.70
2019-03-26T11:46:16.002Z,5.87
2019-03-26T11:48:44.639Z,6.23
2019-03-26T11:51:13.248Z,6.35
2019-03-26T11:53:41.881Z,6.44
2019-03-26T11:56:10.515Z,6.53
2019-03-26T11:58:39.043Z,6.61
2019-03-26T12:01:07.779Z,6.81
2019-03-26T12:03:36.387Z,6.86
2019-03-26T12:06:05.014Z,6.81
2019-03-26T12:08:34.871Z,6.89
2019-03-26T12:11:03.407Z,7.00
2019-03-26T12:13:31.970Z,7.10
2019-03-26T12:16:00.500Z,7.25
2019-03-26T12:18:29.041Z,7.23
2019-03-26T12:20:57.511Z,7.15
2019-03-26T12:23:26.107Z,7.17
2019-03-26T12:25:55.223Z,7.28
2019-03-26T12:28:23.802Z,7.37
2019-03-26T12:30:52.481Z,7.27
2019-03-26T12:33:21.042Z,6.95
2019-03-26T12:35:52.484Z,6.69
2019-03-26T12:38:21.398Z,6.58
2019-03-26T12:40:53.488Z,6.61
2019-03-26T12:43:22.229Z,6.53
2019-03-26T12:45:52.342Z,6.40
2019-03-26T12:48:21.091Z,6.35
2019-03-26T12:50:49.690Z,6.29
2019-03-26T12:53:18.300Z,6.25
2019-03-26T12:55:46.841Z,6.20
2019-03-26T12:58:15.469Z,6.17
2019-03-26T13:00:44.051Z,6.09
2019-03-26T13:03:12.657Z,6.02
2019-03-26T13:05:41.196Z,6.10
2019-03-26T13:08:09.843Z,6.03
2019-03-26T13:10:38.541Z,6.02
2019-03-26T13:13:07.148Z,6.05
2019-03-26T13:15:35.762Z,6.10
2019-03-26T13:18:04.376Z,6.03
2019-03-26T13:20:32.966Z,6.02
2019-03-26T13:23:02.695Z,5.97
2019-03-26T13:25:31.303Z,5.86
2019-03-26T13:27:59.851Z,5.79
2019-03-26T13:30:28.452Z,5.67
2019-03-26T13:32:57.026Z,5.62
2019-03-26T13:35:25.655Z,5.59
2019-03-26T13:37:54.278Z,5.64
2019-03-26T13:40:27.489Z,5.56
2019-03-26T13:42:53.257Z,5.60
2019-03-26T13:45:21.831Z,5.66
2019-03-26T13:47:50.374Z,5.70
2019-03-26T13:50:33.992Z,5.70
2019-03-26T13:52:50.041Z,5.75
2019-03-26T13:55:19.448Z,5.65
2019-03-26T13:57:48.083Z,5.62
2019-03-26T14:00:19.600Z,5.64
2019-03-26T14:02:48.199Z,5.70
2019-03-26T14:05:27.099Z,5.70
2019-03-26T14:07:55.703Z,5.73
2019-03-26T14:10:24.574Z,5.72
2019-03-26T14:12:53.189Z,5.63
2019-03-26T14:15:24.335Z,5.58
2019-03-26T14:17:52.954Z,5.58
2019-03-26T14:20:21.955Z,5.62
2019-03-26T14:22:50.595Z,5.67
2019-03-26T14:25:19.211Z,5.66
2019-03-26T14:27:47.845Z,5.69
2019-03-26T14:30:20.626Z,5.74
2019-03-26T14:32:49.054Z,5.76
2019-03-26T14:35:19.967Z,5.75
2019-03-26T14:37:51.470Z,5.73
2019-03-26T14:40:18.967Z,5.69
2019-03-26T14:42:47.503Z,5.56
2019-03-26T14:45:16.105Z,5.51
2019-03-26T14:47:44.709Z,5.47
2019-03-26T14:50:16.680Z,5.42
2019-03-26T14:52:45.182Z,5.39
2019-03-26T14:55:13.787Z,5.37
2019-03-26T14:57:42.337Z,5.36
2019-03-26T15:00:11.619Z,5.34
2019-03-26T15:02:41.766Z,5.31
2019-03-26T15:05:11.330Z,5.25
2019-03-26T15:07:39.945Z,5.23
2019-03-26T15:10:09.123Z,5.24
2019-03-26T15:12:37.768Z,5.26
2019-03-26T15:15:07.593Z,5.25
2019-03-26T15:17:36.203Z,5.23
2019-03-26T15:20:07.353Z,5.24
2019-03-26T15:22:35.976Z,5.25
2019-03-26T15:25:10.545Z,5.29
2019-03-26T15:27:39.006Z,5.35
2019-03-26T15:30:09.819Z,5.40
2019-03-26T15:32:38.380Z,5.47
2019-03-26T15:35:07.861Z,5.53
2019-03-26T15:37:36.465Z,5.57
2019-03-26T15:40:08.033Z,5.57
2019-03-26T15:42:36.568Z,5.56
2019-03-26T15:45:08.104Z,5.51
2019-03-26T15:47:36.708Z,5.42
2019-03-26T15:50:07.010Z,5.36
2019-03-26T15:52:35.624Z,5.30
2019-03-26T15:55:05.332Z,5.25
2019-03-26T15:57:33.941Z,5.20
2019-03-26T16:00:02.675Z,5.16
2019-03-26T16:02:31.239Z,5.09
2019-03-26T16:04:59.777Z,5.05
2019-03-26T16:07:28.275Z,4.98
2019-03-26T16:09:56.905Z,4.91
2019-03-26T16:12:25.555Z,4.85
2019-03-26T16:14:54.188Z,4.81
2019-03-26T16:17:22.749Z,4.80
2019-03-26T16:19:51.373Z,4.77
2019-03-26T16:22:19.901Z,4.75
2019-03-26T16:24:48.540Z,4.72
2019-03-26T16:27:17.196Z,4.66
2019-03-26T16:29:45.678Z,4.65
2019-03-26T16:32:14.297Z,4.63
2019-03-26T16:34:42.774Z,4.61
2019-03-26T16:37:11.374Z,4.59
2019-03-26T16:39:40.291Z,4.58
2019-03-26T16:42:08.826Z,4.55
2019-03-26T16:44:37.500Z,4.54
2019-03-26T16:47:06.040Z,4.52
2019-03-26T16:49:34.579Z,4.52
2019-03-26T16:52:06.301Z,4.54
2019-03-26T16:54:34.837Z,4.57
2019-03-26T16:57:03.433Z,4.55
2019-03-26T16:59:32.125Z,4.54
2019-03-26T17:02:00.733Z,4.56
2019-03-26T17:04:29.318Z,4.55
2019-03-26T17:06:58.031Z,4.48
2019-03-26T17:09:26.576Z,4.47
2019-03-26T17:12:03.243Z,4.41
2019-03-26T17:14:25.618Z,4.32
2019-03-26T17:16:54.166Z,4.30
2019-03-26T17:19:22.772Z,4.25
2019-03-26T17:21:51.392Z,4.28
2019-03-26T17:24:19.994Z,4.28
2019-03-26T17:26:48.540Z,4.38
2019-03-26T17:29:17.072Z,4.36
2019-03-26T17:31:45.696Z,4.36
2019-03-26T17:34:14.297Z,4.32
2019-03-26T17:36:42.974Z,4.42
2019-03-26T17:39:11.448Z,4.33
2019-03-26T17:41:40.058Z,4.21
2019-03-26T17:44:08.654Z,4.01
2019-03-26T17:46:37.267Z,3.67
2019-03-26T17:49:05.880Z,3.28
2019-03-26T17:51:34.518Z,3.06
2019-03-26T17:54:03.186Z,2.94
2019-03-26T17:56:31.783Z,2.74
2019-03-26T17:59:00.392Z,2.58
2019-03-26T18:01:29.298Z,2.44
2019-03-26T18:03:57.976Z,2.37
2019-03-26T18:06:26.587Z,2.32
2019-03-26T18:08:55.244Z,2.25
2019-03-26T18:11:23.849Z,2.27
2019-03-26T18:13:52.565Z,2.26
2019-03-26T18:16:21.085Z,2.30
2019-03-26T18:18:49.819Z,2.31
2019-03-26T18:21:18.459Z,2.30
2019-03-26T18:23:47.090Z,2.28
2019-03-26T18:26:15.725Z,2.23
2019-03-26T18:28:44.340Z,2.25
2019-03-26T18:31:13.022Z,2.21
2019-03-26T18:33:41.678Z,2.20
2019-03-26T18:36:11.738Z,2.22
2019-03-26T18:38:40.404Z,2.15
2019-03-26T18:41:09.125Z,2.15
2019-03-26T18:43:37.749Z,2.16
2019-03-26T18:46:06.353Z,2.18
2019-03-26T18:48:36.175Z,2.16
2019-03-26T18:51:04.856Z,2.18
2019-03-26T18:53:33.474Z,2.16
2019-03-26T18:56:02.159Z,2.13
2019-03-26T18:58:30.800Z,2.18
2019-03-26T19:00:59.344Z,2.19
2019-03-26T19:03:27.973Z,2.19
2019-03-26T19:05:56.556Z,2.22
2019-03-26T19:08:25.213Z,2.23
2019-03-26T19:10:53.792Z,2.26
2019-03-26T19:13:22.401Z,2.25
2019-03-26T19:15:50.981Z,2.25
2019-03-26T19:18:19.708Z,2.28
2019-03-26T19:21:00.970Z,2.29
2019-03-26T19:23:18.650Z,2.30
2019-03-26T19:25:47.238Z,2.33
2019-03-26T19:28:15.847Z,2.35
2019-03-26T19:30:44.460Z,2.35
2019-03-26T19:33:13.108Z,2.35
2019-03-26T19:35:41.719Z,2.32
2019-03-26T19:38:10.253Z,2.34
2019-03-26T19:40:38.910Z,2.32
2019-03-26T19:43:11.037Z,2.32
2019-03-26T19:45:37.803Z,2.29
2019-03-26T19:48:06.507Z,2.29
2019-03-26T19:50:35.148Z,2.30
2019-03-26T19:53:07.193Z,2.31
2019-03-26T19:55:36.271Z,2.34
2019-03-26T19:58:04.946Z,2.37
2019-03-26T20:00:33.713Z,2.36
2019-03-26T20:03:02.330Z,2.36
2019-03-26T20:05:30.957Z,2.37
2019-03-26T20:07:59.564Z,2.38
2019-03-26T20:10:28.401Z,2.39
2019-03-26T20:12:57.048Z,2.42
2019-03-26T20:15:25.733Z,2.43
2019-03-26T20:17:54.421Z,2.45
2019-03-26T20:20:23.535Z,2.46
2019-03-26T20:22:52.254Z,2.48
2019-03-26T20:25:20.869Z,2.47
2019-03-26T20:27:54.970Z,2.45
2019-03-26T20:30:23.869Z,2.41
2019-03-26T20:32:52.525Z,2.33
2019-03-26T20:35:21.136Z,2.21
2019-03-26T20:37:49.781Z,2.12
2019-03-26T20:40:18.511Z,2.02
2019-03-26T20:42:47.143Z,1.96
2019-03-26T20:45:16.261Z,1.91
2019-03-26T20:47:44.875Z,1.81
2019-03-26T20:50:14.004Z,1.76
2019-03-26T20:52:42.656Z,1.73
2019-03-26T20:55:12.869Z,1.69
2019-03-26T20:57:41.615Z,1.69
2019-03-26T21:00:15.705Z,1.66
2019-03-26T21:02:44.244Z,1.61
2019-03-26T21:05:12.950Z,1.60
2019-03-26T21:07:41.524Z,1.59
2019-03-26T21:10:10.846Z,1.58
2019-03-26T21:12:39.594Z,1.59
2019-03-26T21:15:10.492Z,1.58
2019-03-26T21:17:39.115Z,1.55
2019-03-26T21:20:09.311Z,1.52
2019-03-26T21:22:37.877Z,1.50
2019-03-26T21:25:08.639Z,1.46
2019-03-26T21:27:37.411Z,1.39
2019-03-26T21:30:11.441Z,1.36
2019-03-26T21:32:39.696Z,1.29
2019-03-26T21:35:08.850Z,1.27
2019-03-26T21:37:39.363Z,1.24
2019-03-26T21:40:10.510Z,1.21
2019-03-26T21:42:39.403Z,1.20
2019-03-26T21:45:09.914Z,1.18
2019-03-26T21:47:39.513Z,1.17
2019-03-26T21:50:08.840Z,1.07
2019-03-26T21:52:37.414Z,1.06
2019-03-26T21:55:13.106Z,1.06
2019-03-26T21:57:40.031Z,1.00
2019-03-26T22:00:09.505Z,0.91
2019-03-26T22:02:38.110Z,0.82
2019-03-26T22:05:12.752Z,0.84
2019-03-26T22:07:38.722Z,0.82
2019-03-26T22:10:08.749Z,0.81
2019-03-26T22:12:37.392Z,0.82
2019-03-26T22:15:08.924Z,0.76
2019-03-26T22:17:37.708Z,0.74
2019-03-26T22:20:08.449Z,0.73
2019-03-26T22:22:37.189Z,0.72
2019-03-26T22:25:08.976Z,0.69
2019-03-26T22:27:37.603Z,0.63
2019-03-26T22:30:09.379Z,0.58
2019-03-26T22:32:38.176Z,0.47
2019-03-26T22:35:08.662Z,0.44
2019-03-26T22:37:37.324Z,0.42
2019-03-26T22:40:08.005Z,0.35
2019-03-26T22:42:36.892Z,0.33
2019-03-26T22:45:12.387Z,0.29
2019-03-26T22:47:41.025Z,0.27
2019-03-26T22:50:11.027Z,0.24
2019-03-26T22:52:39.647Z,0.24
2019-03-26T22:55:10.247Z,0.17
2019-03-26T22:57:39.188Z,0.15
2019-03-26T23:00:13.306Z,0.12
2019-03-26T23:02:41.976Z,0.13
2019-03-26T23:05:11.448Z,0.12
2019-03-26T23:07:40.173Z,0.10
2019-03-26T23:10:10.017Z,0.13
2019-03-26T23:12:38.724Z,0.10
2019-03-26T23:15:13.045Z,0.10
2019-03-26T23:17:43.132Z,0.12
2019-03-26T23:20:11.933Z,0.11
2019-03-26T23:22:40.527Z,0.14
2019-03-26T23:25:09.544Z,0.12
2019-03-26T23:27:38.145Z,0.12
2019-03-26T23:30:08.366Z,0.09
2019-03-26T23:32:36.992Z,0.10
2019-03-26T23:35:05.698Z,0.06
2019-03-26T23:37:34.289Z,0.06
2019-03-26T23:40:02.870Z,0.07
2019-03-26T23:42:31.423Z,0.07
2019-03-26T23:45:01.242Z,0.08
2019-03-26T23:47:29.793Z,0.06
2019-03-26T23:49:58.317Z,0.05
2019-03-26T23:52:26.852Z,0.05
2019-03-26T23:54:55.384Z,0.05
2019-03-26T23:57:23.870Z,0.05
2019-03-26T23:59:52.468Z,0.04
